Time;durP1;ratioP1;P1;durP2;ratioP2;P2;SDS_P1;SDS_P2;PMS_P1;PMS_P2;Temp;Humidity;BMP_temperature;BMP_pressure;BME280_temperature;BME280_humidity;BME280_pressure;Samples;Min_cycle;Max_cycle;Signal;HPM_P1;HPM_P2
2022/02/13 00:00:30;;;;;;;7.97;3.83;;;;;;;-0.12;81.30;101691.97;2027027;29;20035;-61
2022/02/13 00:01:30;;;;;;;5.70;3.60;;;;;;;-0.14;81.28;101689.38;2027014;29;20039;-61
2022/02/13 00:02:30;;;;;;;9.40;4.17;;;;;;;-0.15;80.71;101686.78;2026983;29;20029;-60
2022/02/13 00:03:31;;;;;;;6.50;4.10;;;;;;;-0.13;81.09;101682.56;2034133;29;20116;-60
2022/02/13 00:04:31;;;;;;;6.70;4.90;;;;;;;-0.15;81.45;101686.78;2034124;29;20088;-59
2022/02/13 00:05:31;;;;;;;6.50;4.75;;;;;;;-0.14;81.00;101678.25;2026982;29;20426;-59
2022/02/13 00:06:32;;;;;;;8.43;5.37;;;;;;;-0.13;80.99;101692.81;2026212;29;20103;-60
2022/02/13 00:07:35;;;;;;;6.10;3.53;;;;;;;-0.15;81.17;101686.78;2026375;29;20430;-61
2022/02/13 00:08:36;;;;;;;7.97;4.07;;;;;;;-0.23;81.04;101685.81;2026909;29;20119;-61
2022/02/13 00:09:37;;;;;;;10.07;4.47;;;;;;;-0.31;81.21;101686.53;2026942;29;20510;-61
2022/02/13 00:10:37;;;;;;;6.40;3.92;;;;;;;-0.30;81.83;101687.41;2027028;29;20032;-62
2022/02/13 00:11:37;;;;;;;7.63;3.80;;;;;;;-0.29;81.97;101690.00;2034093;29;20378;-61
2022/02/13 00:12:38;;;;;;;10.03;4.73;;;;;;;-0.31;81.96;101686.53;2034156;29;20031;-61
2022/02/13 00:13:39;;;;;;;7.93;4.63;;;;;;;-0.28;81.86;101686.59;2026263;29;20020;-60
2022/02/13 00:14:39;;;;;;;9.87;5.30;;;;;;;-0.29;81.99;101684.00;2026287;29;20036;-61
2022/02/13 00:15:39;;;;;;;9.50;4.70;;;;;;;-0.30;82.05;101682.28;2026797;29;20035;-60
2022/02/13 00:16:39;;;;;;;7.80;4.50;;;;;;;-0.35;81.96;101674.50;2026800;29;20033;-60
2022/02/13 00:17:40;;;;;;;13.03;5.17;;;;;;;-0.36;82.21;101683.06;2026895;29;20031;-60
2022/02/13 00:18:40;;;;;;;6.27;4.27;;;;;;;-0.38;82.44;101679.59;2026787;29;20028;-61
2022/02/13 00:19:41;;;;;;;8.47;4.83;;;;;;;-0.41;82.37;101679.56;2026830;29;20119;-61
2022/02/13 00:20:41;;;;;;;7.43;4.70;;;;;;;-0.41;82.85;101674.44;2026191;29;20104;-60
2022/02/13 00:21:41;;;;;;;10.13;4.10;;;;;;;-0.45;82.65;101680.34;2026230;29;20032;-62
2022/02/13 00:22:42;;;;;;;7.67;4.13;;;;;;;-0.50;82.88;101684.50;2026773;29;20041;-60
2022/02/13 00:23:42;;;;;;;8.67;4.70;;;;;;;-0.48;83.38;101685.41;2026829;29;20077;-61
2022/02/13 00:24:43;;;;;;;8.80;4.47;;;;;;;-0.49;83.35;101681.09;2026764;29;20415;-61
2022/02/13 00:25:44;;;;;;;12.60;5.53;;;;;;;-0.47;83.17;101679.44;2026742;29;20068;-62
2022/02/13 00:26:44;;;;;;;7.67;4.73;;;;;;;-0.45;83.11;101688.03;2026081;29;20609;-61
2022/02/13 00:27:45;;;;;;;7.63;4.60;;;;;;;-0.50;83.05;101679.38;2026159;29;20100;-60
2022/02/13 00:28:45;;;;;;;7.93;4.57;;;;;;;-0.50;83.25;101679.38;2033896;29;20059;-61
2022/02/13 00:29:46;;;;;;;7.83;5.27;;;;;;;-0.52;83.57;101685.34;2033964;29;20036;-61
2022/02/13 00:30:46;;;;;;;9.70;4.60;;;;;;;-0.52;83.73;101693.03;2026207;29;20048;-61
2022/02/13 00:31:47;;;;;;;6.60;4.50;;;;;;;-0.55;83.37;101685.28;2026242;29;20032;-62
2022/02/13 00:32:50;;;;;;;8.17;4.20;;;;;;;-0.62;83.59;101688.59;2026707;29;20033;-60
2022/02/13 00:33:51;;;;;;;8.27;3.83;;;;;;;-0.64;83.86;101687.72;2026682;29;20084;-60
2022/02/13 00:34:51;;;;;;;7.68;3.90;;;;;;;-0.65;84.00;101686.00;2026722;29;20076;-62
2022/02/13 00:35:51;;;;;;;8.60;4.20;;;;;;;-0.63;84.09;101684.28;2026710;29;20032;-60
2022/02/13 00:36:51;;;;;;;9.17;4.73;;;;;;;-0.60;84.20;101686.94;2026648;29;20029;-60
2022/02/13 00:37:51;;;;;;;10.43;4.77;;;;;;;-0.60;83.83;101689.50;2026729;29;20483;-61
2022/02/13 00:38:52;;;;;;;8.27;3.77;;;;;;;-0.62;83.89;101686.03;2026532;29;20056;-61
2022/02/13 00:39:52;;;;;;;7.33;4.30;;;;;;;-0.65;84.53;101680.88;2025319;29;20156;-61
2022/02/13 00:40:52;;;;;;;8.17;4.97;;;;;;;-0.67;84.40;101678.25;2026158;29;20033;-61
2022/02/13 00:41:53;;;;;;;9.10;5.37;;;;;;;-0.68;84.37;101675.66;2026657;29;20493;-61
2022/02/13 00:42:54;;;;;;;9.20;5.03;;;;;;;-0.68;84.97;101675.66;2026623;29;20032;-61
2022/02/13 00:43:54;;;;;;;8.03;4.83;;;;;;;-0.70;84.48;101678.22;2026676;29;20364;-60
2022/02/13 00:44:54;;;;;;;7.60;4.63;;;;;;;-0.70;84.62;101665.38;2026509;29;20447;-61
2022/02/13 00:45:55;;;;;;;9.07;5.20;;;;;;;-0.72;84.72;101673.91;2026600;29;20080;-61
2022/02/13 00:46:55;;;;;;;7.00;4.57;;;;;;;-0.75;84.83;101673.81;2026627;29;20048;-59
2022/02/13 00:47:55;;;;;;;7.60;4.60;;;;;;;-0.80;84.96;101666.03;2026602;29;20303;-60
2022/02/13 00:48:56;;;;;;;6.27;3.87;;;;;;;-0.82;85.28;101667.72;2026655;29;20028;-60
2022/02/13 00:49:56;;;;;;;9.80;4.23;;;;;;;-0.78;85.51;101669.50;2033751;29;20024;-60
2022/02/13 00:50:56;;;;;;;9.00;4.33;;;;;;;-0.78;85.21;101665.22;2033823;29;20119;-60
2022/02/13 00:51:56;;;;;;;7.30;4.13;;;;;;;-0.81;85.20;101665.19;2025921;29;20039;-60
2022/02/13 00:52:57;;;;;;;10.77;5.17;;;;;;;-0.83;85.57;101661.72;2026046;29;20037;-61
2022/02/13 00:53:59;;;;;;;6.53;3.60;;;;;;;-0.85;85.45;101662.53;2026540;29;20084;-60
2022/02/13 00:54:59;;;;;;;7.10;3.67;;;;;;;-0.85;85.87;101657.41;2026309;29;20111;-61
2022/02/13 00:55:59;;;;;;;8.23;5.27;;;;;;;-0.85;85.69;101658.28;2033590;29;20497;-61
2022/02/13 00:57:01;;;;;;;8.23;4.27;;;;;;;-0.86;85.79;101658.25;2033848;29;20055;-61
2022/02/13 00:58:01;;;;;;;8.23;4.95;;;;;;;-0.87;85.96;101659.94;2026543;29;20498;-60
2022/02/13 00:59:02;;;;;;;6.83;4.30;;;;;;;-0.87;85.92;101654.81;2026547;29;20028;-61
2022/02/13 01:00:04;;;;;;;9.07;5.20;;;;;;;-0.85;85.95;101657.41;2026505;29;20036;-61
2022/02/13 01:01:05;;;;;;;8.73;3.97;;;;;;;-0.80;85.60;101654.09;2026477;29;20088;-61
2022/02/13 01:02:06;;;;;;;10.25;5.20;;;;;;;-0.82;85.64;101653.19;2025842;29;20035;-61
2022/02/13 01:03:06;;;;;;;6.30;4.30;;;;;;;-0.84;85.87;101654.00;2025925;29;20565;-62
2022/02/13 01:04:06;;;;;;;8.07;4.67;;;;;;;-0.81;86.01;101657.50;2026418;29;20036;-62
2022/02/13 01:05:07;;;;;;;8.33;4.87;;;;;;;-0.80;85.86;101650.66;2026472;29;20040;-62
2022/02/13 01:06:07;;;;;;;8.53;4.20;;;;;;;-0.83;85.38;101651.47;2026504;29;20044;-61
2022/02/13 01:07:07;;;;;;;9.43;4.77;;;;;;;-0.84;85.96;101644.63;2026404;29;20037;-61
2022/02/13 01:08:07;;;;;;;9.00;5.47;;;;;;;-0.82;85.94;101650.63;2026449;29;20036;-61
2022/02/13 01:09:08;;;;;;;6.83;3.67;;;;;;;-0.81;85.57;101649.81;2026420;29;20032;-61
2022/02/13 01:10:08;;;;;;;8.23;4.13;;;;;;;-0.87;85.83;101644.56;2026462;29;20043;-61
2022/02/13 01:11:08;;;;;;;7.17;4.13;;;;;;;-0.91;86.14;101647.91;2026455;29;20063;-61
2022/02/13 01:12:09;;;;;;;10.10;5.67;;;;;;;-0.87;86.30;101644.56;2025802;29;20782;-61
2022/02/13 01:13:10;;;;;;;9.88;4.38;;;;;;;-0.82;85.95;101644.66;2018019;29;20376;-60
2022/02/13 01:14:10;;;;;;;6.30;4.30;;;;;;;-0.78;85.94;101643.88;2025768;29;20024;-61
2022/02/13 01:15:11;;;;;;;7.18;4.43;;;;;;;-0.78;85.77;101644.72;2025733;29;20067;-61
2022/02/13 01:16:11;;;;;;;7.20;3.43;;;;;;;-0.81;86.22;101644.69;2025696;29;20115;-61
2022/02/13 01:17:11;;;;;;;6.97;4.60;;;;;;;-0.75;85.95;101643.06;2026421;29;20060;-61
2022/02/13 01:18:12;;;;;;;8.53;4.30;;;;;;;-0.72;85.86;101640.56;2026416;29;20056;-61
2022/02/13 01:19:13;;;;;;;9.65;4.60;;;;;;;-0.69;85.28;101646.59;2026161;29;20080;-61
2022/02/13 01:20:13;;;;;;;9.17;3.93;;;;;;;-0.72;85.56;101638.00;2026371;29;20037;-61
2022/02/13 01:21:13;;;;;;;8.87;6.73;;;;;;;-0.74;85.36;101644.78;2026332;29;20036;-61
2022/02/13 01:22:13;;;;;;;8.13;3.80;;;;;;;-0.78;85.65;101639.59;2026312;29;20111;-61
2022/02/13 01:23:14;;;;;;;6.60;3.97;;;;;;;-0.84;85.97;101639.50;2026371;29;20039;-60
2022/02/13 01:24:14;;;;;;;7.13;4.00;;;;;;;-0.85;86.04;101631.78;2026298;29;20032;-60
2022/02/13 01:25:15;;;;;;;7.63;5.23;;;;;;;-0.85;86.46;101632.66;2026352;29;20439;-61
2022/02/13 01:26:15;;;;;;;7.27;4.17;;;;;;;-0.86;85.92;101628.34;2026326;29;20498;-61
2022/02/13 01:27:16;;;;;;;9.03;4.80;;;;;;;-0.88;86.12;101627.47;2026334;29;20107;-61
2022/02/13 01:28:16;;;;;;;9.20;4.43;;;;;;;-0.90;86.47;101631.69;2026232;29;20778;-61
2022/02/13 01:29:16;;;;;;;6.63;4.20;;;;;;;-0.91;86.45;101632.53;2033399;29;20036;-61
2022/02/13 01:30:16;;;;;;;8.33;4.10;;;;;;;-0.87;86.39;101624.06;2033498;29;20036;-60
2022/02/13 01:31:17;;;;;;;8.40;4.53;;;;;;;-0.84;86.65;101621.56;2026263;29;20083;-60
2022/02/13 01:32:18;;;;;;;7.90;3.92;;;;;;;-0.87;86.10;101618.06;2026330;29;20060;-61
2022/02/13 01:33:18;;;;;;;8.73;4.53;;;;;;;-0.89;86.39;101622.31;2026290;29;20024;-60
2022/02/13 01:34:18;;;;;;;7.50;4.50;;;;;;;-0.91;86.46;101612.91;2026236;29;20032;-60
2022/02/13 01:35:19;;;;;;;8.10;5.10;;;;;;;-0.84;86.76;101608.75;2026296;29;20447;-60
2022/02/13 01:36:19;;;;;;;7.80;4.33;;;;;;;-0.80;86.21;101605.41;2026208;29;20029;-60
2022/02/13 01:37:19;;;;;;;8.30;4.10;;;;;;;-0.77;85.96;101609.72;2026308;29;20069;-60
2022/02/13 01:38:20;;;;;;;7.93;3.43;;;;;;;-0.79;86.03;101603.69;2026219;29;20498;-60
2022/02/13 01:39:20;;;;;;;7.83;4.50;;;;;;;-0.76;85.97;101615.72;2026271;29;20051;-60
2022/02/13 01:40:20;;;;;;;11.73;5.27;;;;;;;-0.81;86.07;101618.19;2026217;29;20032;-59
2022/02/13 01:41:21;;;;;;;9.43;4.63;;;;;;;-0.74;85.92;101609.78;2026281;29;20107;-61
2022/02/13 01:42:21;;;;;;;7.77;4.97;;;;;;;-0.74;85.68;101611.47;2026322;29;20029;-60
2022/02/13 01:43:21;;;;;;;5.50;3.70;;;;;;;-0.82;85.84;101601.94;2026149;29;20050;-61
2022/02/13 01:44:27;;;;;;;7.30;4.20;;;;;;;-0.89;86.07;101594.13;2026107;29;20069;-61
2022/02/13 01:45:27;;;;;;;7.82;4.18;;;;;;;-0.92;86.48;101602.63;2026261;29;20393;-60
2022/02/13 01:46:28;;;;;;;7.57;5.17;;;;;;;-0.88;87.14;101593.28;2026178;29;20009;-60
2022/02/13 01:47:29;;;;;;;8.40;4.97;;;;;;;-0.80;86.21;101594.28;2026197;29;20423;-61
2022/02/13 01:48:30;;;;;;;12.07;5.13;;;;;;;-0.80;86.39;101594.28;2025500;29;20061;-60
2022/02/13 01:49:31;;;;;;;8.02;4.50;;;;;;;-0.85;86.34;101590.78;2025626;29;20501;-60
2022/02/13 01:50:31;;;;;;;6.35;3.88;;;;;;;-0.84;86.18;101587.38;2033295;29;20114;-61
2022/02/13 01:51:32;;;;;;;10.97;4.97;;;;;;;-0.87;86.44;101593.31;2026089;29;20032;-61
2022/02/13 01:52:32;;;;;;;7.93;4.50;;;;;;;-0.91;86.44;101588.97;2026091;29;20528;-61
2022/02/13 01:53:32;;;;;;;6.47;3.87;;;;;;;-0.93;86.64;101583.81;2026139;29;20047;-61
2022/02/13 01:54:33;;;;;;;10.00;5.27;;;;;;;-0.94;86.71;101581.22;2026142;29;20059;-60
2022/02/13 01:55:34;;;;;;;6.87;4.57;;;;;;;-0.92;86.95;101577.00;2026028;29;20084;-60
2022/02/13 01:56:34;;;;;;;9.27;4.97;;;;;;;-0.88;86.69;101581.34;2026043;29;20029;-60
2022/02/13 01:57:35;;;;;;;10.43;4.97;;;;;;;-0.90;86.66;101575.31;2026120;29;20056;-61
2022/02/13 01:58:35;;;;;;;9.47;4.10;;;;;;;-0.84;86.34;101572.00;2026159;29;20375;-61
2022/02/13 01:59:35;;;;;;;8.33;4.50;;;;;;;-0.78;86.33;101572.94;2026162;29;20048;-61
2022/02/13 02:00:36;;;;;;;7.13;4.47;;;;;;;-0.76;85.96;101569.56;2026138;29;20032;-61
2022/02/13 02:01:36;;;;;;;7.23;4.73;;;;;;;-0.76;85.75;101565.28;2025432;29;20458;-60
2022/02/13 02:02:36;;;;;;;9.23;4.77;;;;;;;-0.79;85.98;101568.66;2025456;29;20108;-61
2022/02/13 02:03:37;;;;;;;6.30;4.00;;;;;;;-0.80;86.10;101569.53;2026084;29;20037;-60
2022/02/13 02:04:39;;;;;;;8.05;4.32;;;;;;;-0.82;86.19;101555.78;2026012;29;20029;-61
2022/02/13 02:05:42;;;;;;;8.52;4.57;;;;;;;-0.86;86.08;101560.88;2026040;29;20032;-61
2022/02/13 02:06:42;;;;;;;8.52;5.22;;;;;;;-0.86;86.27;101563.44;2026059;29;20064;-61
2022/02/13 02:07:42;;;;;;;7.73;3.87;;;;;;;-0.88;86.28;101571.09;2025981;29;20049;-62
2022/02/13 02:08:43;;;;;;;7.87;4.37;;;;;;;-0.91;86.36;101561.66;2025401;29;20498;-60
2022/02/13 02:09:47;;;;;;;7.73;4.00;;;;;;;-0.86;86.44;101564.28;2025481;29;20044;-62
2022/02/13 02:10:51;;;;;;;6.97;4.88;;;;;;;-0.86;86.28;101554.03;2026121;29;20557;-61
2022/02/13 02:11:52;;;;;;;7.68;4.68;;;;;;;-0.81;85.92;101552.41;2026037;29;20020;-63
2022/02/13 02:12:52;;;;;;;11.52;5.25;;;;;;;-0.75;85.69;101555.91;2026041;29;20111;-60
2022/02/13 02:13:52;;;;;;;9.93;4.13;;;;;;;-0.74;85.78;101547.38;2026048;29;20138;-60
2022/02/13 02:14:52;;;;;;;8.03;4.17;;;;;;;-0.76;85.85;101551.63;2026030;29;20032;-60
2022/02/13 02:15:53;;;;;;;9.83;4.13;;;;;;;-0.73;85.89;101549.09;2026008;29;20036;-60
2022/02/13 02:16:53;;;;;;;8.63;3.80;;;;;;;-0.74;85.71;101552.50;2026109;29;20036;-60
2022/02/13 02:17:53;;;;;;;5.53;3.50;;;;;;;-0.75;85.75;101548.22;2033173;29;20067;-60
2022/02/13 02:18:54;;;;;;;9.17;4.20;;;;;;;-0.75;85.95;101540.53;2033232;29;20040;-61
2022/02/13 02:19:54;;;;;;;7.90;4.30;;;;;;;-0.75;85.52;101540.53;2025989;29;20028;-62
2022/02/13 02:20:56;;;;;;;7.93;4.10;;;;;;;-0.79;85.77;101543.03;2026043;29;20064;-62
2022/02/13 02:21:57;;;;;;;7.03;4.30;;;;;;;-0.80;85.59;101540.44;2026033;29;20399;-61
2022/02/13 02:22:58;;;;;;;6.93;3.22;;;;;;;-0.82;85.84;101537.84;2026052;29;20060;-60
2022/02/13 02:23:59;;;;;;;7.63;4.13;;;;;;;-0.82;85.93;101540.41;2025941;29;20546;-61
2022/02/13 02:24:59;;;;;;;6.57;4.20;;;;;;;-0.79;85.97;101539.59;2026023;29;20036;-60
2022/02/13 02:25:59;;;;;;;8.30;5.07;;;;;;;-0.78;85.91;101537.06;2025927;29;20111;-60
2022/02/13 02:27:00;;;;;;;7.70;4.57;;;;;;;-0.76;85.60;101539.66;2025960;29;20043;-61
2022/02/13 02:28:00;;;;;;;10.50;5.30;;;;;;;-0.78;85.78;101537.06;2025199;29;20033;-60
2022/02/13 02:29:00;;;;;;;8.47;4.67;;;;;;;-0.79;86.05;101540.47;2025366;29;20056;-61
2022/02/13 02:30:01;;;;;;;4.60;3.20;;;;;;;-0.79;85.62;101540.47;2025903;29;20057;-60
2022/02/13 02:31:01;;;;;;;9.47;3.93;;;;;;;-0.80;85.62;101543.00;2033202;29;20091;-59
2022/02/13 02:32:02;;;;;;;9.77;4.00;;;;;;;-0.79;85.62;101534.47;2033148;29;20397;-60
2022/02/13 02:33:02;;;;;;;8.43;3.60;;;;;;;-0.84;85.62;101533.53;2025951;29;20503;-61
2022/02/13 02:34:03;;;;;;;7.50;4.10;;;;;;;-0.83;85.63;101538.69;2025950;29;20021;-61
2022/02/13 02:35:04;;;;;;;8.80;4.17;;;;;;;-0.84;85.86;101536.09;2025886;29;20084;-60
2022/02/13 02:36:04;;;;;;;5.80;3.50;;;;;;;-0.83;85.86;101532.69;2025873;29;20137;-60
2022/02/13 02:37:06;;;;;;;6.13;4.30;;;;;;;-0.85;86.08;101532.72;2025921;29;20041;-61
2022/02/13 02:38:06;;;;;;;;;;;;;;;-0.87;86.09;101525.81;2026350;29;20041;-62
2022/02/13 02:39:07;;;;;;;6.05;3.10;;;;;;;-0.86;85.96;101513.00;2025919;29;19919;-62
2022/02/13 02:40:07;;;;;;;6.23;4.00;;;;;;;-0.85;85.98;101525.00;2025925;29;20033;-61
2022/02/13 02:41:08;;;;;;;8.13;4.22;;;;;;;-0.86;85.76;101523.28;2025302;29;20027;-62
2022/02/13 02:42:11;;;;;;;9.27;4.20;;;;;;;-0.85;85.97;101509.63;2025262;29;20048;-61
2022/02/13 02:43:12;;;;;;;5.75;3.30;;;;;;;-0.86;86.00;101513.00;2032800;29;20414;-62
2022/02/13 02:44:13;;;;;;;5.63;3.90;;;;;;;-0.88;85.82;101512.16;2025771;29;20048;-61
2022/02/13 02:45:14;;;;;;;6.35;3.30;;;;;;;-0.87;86.01;101510.44;2025911;29;20033;-60
2022/02/13 02:46:14;;;;;;;6.53;4.00;;;;;;;-0.85;85.65;101503.63;2025898;29;20032;-61
2022/02/13 02:47:14;;;;;;;8.13;3.57;;;;;;;-0.87;86.00;101495.91;2025888;29;20080;-61
2022/02/13 02:48:15;;;;;;;4.67;3.13;;;;;;;-0.85;85.82;101501.94;2033052;29;20059;-62
2022/02/13 02:49:15;;;;;;;6.90;3.47;;;;;;;-0.86;85.77;101494.22;2033117;29;20115;-61
2022/02/13 02:50:16;;;;;;;7.27;3.97;;;;;;;-0.88;85.98;101491.63;2025982;29;20028;-61
2022/02/13 02:51:17;;;;;;;8.93;3.80;;;;;;;-0.83;85.65;101489.13;2025880;29;20494;-62
2022/02/13 02:52:18;;;;;;;4.93;3.10;;;;;;;-0.85;85.98;101484.00;2025179;29;20037;-61
2022/02/13 02:53:18;;;;;;;;;;;;;;;-0.85;85.90;101486.56;2025722;29;20028;-60
2022/02/13 02:54:18;;;;;;;10.10;5.50;;;;;;;-0.81;85.62;101478.09;2025190;29;20421;-60
2022/02/13 02:55:19;;;;;;;11.17;4.43;;;;;;;-0.79;85.70;101481.53;2025282;29;20036;-60
2022/02/13 02:56:19;;;;;;;8.23;3.73;;;;;;;-0.79;85.55;101483.22;2025718;29;20056;-61
2022/02/13 02:57:19;;;;;;;6.50;4.20;;;;;;;-0.80;85.44;101472.13;2025853;29;20025;-59
2022/02/13 02:58:20;;;;;;;6.70;3.90;;;;;;;-0.77;85.44;101471.28;2025847;29;20033;-61
2022/02/13 02:59:20;;;;;;;8.10;3.80;;;;;;;-0.76;85.34;101474.72;2025850;29;20099;-61
2022/02/13 03:00:20;;;;;;;6.13;3.93;;;;;;;-0.81;85.22;101480.66;2025854;29;20145;-61
2022/02/13 03:01:21;;;;;;;6.17;3.60;;;;;;;-0.84;85.58;101475.47;2025891;29;20056;-60
2022/02/13 03:02:21;;;;;;;6.10;3.87;;;;;;;-0.85;85.56;101473.75;2025884;29;20475;-60
2022/02/13 03:03:22;;;;;;;7.40;3.57;;;;;;;-0.86;85.72;101474.56;2027292;29;20052;-61
2022/02/13 03:04:22;;;;;;;7.05;4.18;;;;;;;-0.89;85.99;101465.97;2027328;29;20467;-61
2022/02/13 03:05:22;;;;;;;4.80;3.40;;;;;;;-0.83;85.98;101472.06;2027392;29;20025;-60
2022/02/13 03:06:23;;;;;;;9.23;4.43;;;;;;;-0.82;85.60;101462.69;2027343;29;20418;-60
2022/02/13 03:07:23;;;;;;;8.20;4.35;;;;;;;-0.80;85.65;101464.44;2034509;29;20068;-60
2022/02/13 03:08:24;;;;;;;8.93;4.03;;;;;;;-0.78;85.40;101470.41;2034478;29;20375;-61
2022/02/13 03:09:24;;;;;;;6.37;3.90;;;;;;;-0.80;85.21;101467.00;2027413;29;20040;-61
2022/02/13 03:10:24;;;;;;;7.67;3.70;;;;;;;-0.79;85.35;101468.69;2027362;29;20059;-61
2022/02/13 03:11:25;;;;;;;6.83;3.97;;;;;;;-0.76;85.42;101457.63;2027391;29;20112;-61
2022/02/13 03:12:25;;;;;;;6.43;3.70;;;;;;;-0.79;85.47;101457.56;2027491;29;20051;-61
2022/02/13 03:13:25;;;;;;;9.07;3.63;;;;;;;-0.77;85.39;101461.03;2027389;29;20029;-61
2022/02/13 03:14:26;;;;;;;8.17;4.77;;;;;;;-0.77;85.44;101450.78;2027329;29;20033;-61
2022/02/13 03:15:26;;;;;;;6.53;3.72;;;;;;;-0.72;85.21;101459.41;2027342;29;20108;-61
2022/02/13 03:16:27;;;;;;;7.77;3.70;;;;;;;-0.69;85.09;101448.31;2027207;29;20052;-62
2022/02/13 03:17:27;;;;;;;7.33;3.83;;;;;;;-0.66;84.79;101446.69;2026675;29;20498;-61
2022/02/13 03:18:30;;;;;;;5.90;4.23;;;;;;;-0.65;84.58;101445.81;2026706;29;20073;-61
2022/02/13 03:19:30;;;;;;;9.70;4.47;;;;;;;-0.65;84.59;101439.84;2027279;29;20017;-62
2022/02/13 03:20:30;;;;;;;5.57;3.57;;;;;;;-0.65;84.68;101437.28;2026533;29;20088;-61
2022/02/13 03:21:31;;;;;;;9.27;4.00;;;;;;;-0.71;84.80;101435.50;2026691;29;20408;-61
2022/02/13 03:22:31;;;;;;;5.00;3.53;;;;;;;-0.66;84.74;101438.97;2027309;29;20040;-61
2022/02/13 03:23:31;;;;;;;9.20;3.90;;;;;;;-0.61;84.51;101440.75;2027270;29;20031;-60
2022/02/13 03:24:32;;;;;;;8.63;3.80;;;;;;;-0.58;84.36;101440.81;2027278;29;20104;-61
2022/02/13 03:25:32;;;;;;;5.82;3.55;;;;;;;-0.59;84.14;101447.63;2027249;29;20020;-60
2022/02/13 03:26:33;;;;;;;5.37;3.23;;;;;;;-0.61;84.08;101436.50;2027312;29;20012;-61
2022/02/13 03:27:33;;;;;;;5.55;3.17;;;;;;;-0.66;84.16;101438.09;2026591;29;20056;-60
2022/02/13 03:28:34;;;;;;;6.37;3.53;;;;;;;-0.69;84.29;101443.19;2026621;29;20179;-61
2022/02/13 03:29:34;;;;;;;5.47;3.10;;;;;;;-0.68;84.53;101438.09;2034344;29;20020;-61
2022/02/13 03:30:35;;;;;;;5.73;3.97;;;;;;;-0.65;84.49;101442.44;2034464;29;20047;-60
2022/02/13 03:31:35;;;;;;;6.32;3.83;;;;;;;-0.65;84.45;101434.72;2027194;29;20020;-60
2022/02/13 03:32:36;;;;;;;7.07;4.07;;;;;;;-0.64;84.49;101433.88;2027148;29;20088;-60
2022/02/13 03:33:36;;;;;;;5.27;3.10;;;;;;;-0.65;84.34;101440.69;2027233;29;20087;-60
2022/02/13 03:34:36;;;;;;;7.93;3.95;;;;;;;-0.60;84.18;101433.09;2026540;29;20107;-60
2022/02/13 03:35:37;;;;;;;6.73;3.73;;;;;;;-0.60;84.17;101437.34;2026648;29;20032;-59
2022/02/13 03:36:37;;;;;;;4.68;3.15;;;;;;;-0.57;83.99;101427.13;2027068;29;20041;-60
2022/02/13 03:37:40;;;;;;;5.27;3.40;;;;;;;-0.55;84.09;101434.00;2027161;29;20032;-60
2022/02/13 03:38:40;;;;;;;5.32;3.25;;;;;;;-0.52;83.88;101428.03;2026509;29;20058;-60
2022/02/13 03:39:41;;;;;;;4.47;2.47;;;;;;;-0.56;83.84;101422.03;2026511;29;20025;-60
2022/02/13 03:40:41;;;;;;;6.57;3.63;;;;;;;-0.60;84.10;101425.38;2027173;29;20028;-60
2022/02/13 03:41:41;;;;;;;6.30;3.55;;;;;;;-0.58;83.92;101416.00;2034257;29;20020;-60
2022/02/13 03:42:42;;;;;;;7.40;3.43;;;;;;;-0.58;83.75;101421.13;2034328;29;20478;-60
2022/02/13 03:43:42;;;;;;;8.38;3.67;;;;;;;-0.59;83.94;101413.41;2027106;29;20362;-60
2022/02/13 03:44:43;;;;;;;5.50;3.13;;;;;;;-0.58;84.00;101421.13;2033998;29;20469;-60
2022/02/13 03:45:43;;;;;;;7.53;3.13;;;;;;;-0.59;84.27;101419.41;2034332;29;20031;-61
2022/02/13 03:46:43;;;;;;;5.77;3.37;;;;;;;-0.61;84.00;101410.84;2026511;29;20142;-61
2022/02/13 03:47:44;;;;;;;9.57;3.87;;;;;;;-0.61;83.91;101405.72;2026506;29;20116;-61
2022/02/13 03:48:44;;;;;;;5.73;3.73;;;;;;;-0.57;83.73;101407.50;2027073;29;20037;-61
2022/02/13 03:49:44;;;;;;;7.97;3.60;;;;;;;-0.55;83.61;101400.66;2027078;29;20084;-60
2022/02/13 03:50:44;;;;;;;5.57;2.90;;;;;;;-0.54;83.68;101407.50;2027050;29;20024;-61
2022/02/13 03:51:45;;;;;;;6.63;3.50;;;;;;;-0.58;83.50;101413.44;2027039;29;20108;-60
2022/02/13 03:52:45;;;;;;;5.37;3.77;;;;;;;-0.54;83.66;101410.06;2027145;29;20490;-61
2022/02/13 03:53:45;;;;;;;5.67;3.50;;;;;;;-0.54;83.68;101416.91;2027034;29;20029;-61
2022/02/13 03:54:45;;;;;;;7.17;3.33;;;;;;;-0.55;83.77;101410.06;2027052;29;20119;-61
2022/02/13 03:55:46;;;;;;;4.97;3.10;;;;;;;-0.52;83.61;101405.84;2027002;29;20048;-61
2022/02/13 03:56:46;;;;;;;5.47;3.30;;;;;;;-0.53;83.48;101413.50;2034021;29;20036;-61
2022/02/13 03:57:46;;;;;;;4.77;3.20;;;;;;;-0.58;83.62;101410.88;2034188;29;20039;-61
2022/02/13 03:58:47;;;;;;;7.27;3.73;;;;;;;-0.62;83.96;101403.97;2027040;29;20084;-61
2022/02/13 03:59:47;;;;;;;5.33;3.47;;;;;;;-0.62;84.06;101409.09;2027003;29;20084;-61
2022/02/13 04:00:47;;;;;;;6.23;3.33;;;;;;;-0.61;83.91;101405.72;2026893;29;20120;-60
2022/02/13 04:01:47;;;;;;;5.27;3.70;;;;;;;-0.54;83.81;101412.63;2027068;29;20032;-61
2022/02/13 04:02:48;;;;;;;6.57;3.60;;;;;;;-0.53;83.49;101411.81;2026977;29;20088;-60
2022/02/13 04:03:48;;;;;;;4.70;3.40;;;;;;;-0.57;83.44;101406.63;2026906;29;20036;-61
2022/02/13 04:04:49;;;;;;;6.27;3.40;;;;;;;-0.59;83.98;101414.28;2027013;29;20074;-62
2022/02/13 04:05:51;;;;;;;8.23;3.45;;;;;;;-0.58;83.76;101404.91;2026970;29;20040;-61
2022/02/13 04:06:52;;;;;;;5.40;3.33;;;;;;;-0.62;83.80;101401.41;2026267;29;20056;-61
2022/02/13 04:07:52;;;;;;;7.87;4.07;;;;;;;-0.59;84.18;101403.16;2026382;29;20037;-61
2022/02/13 04:08:52;;;;;;;7.50;3.60;;;;;;;-0.56;83.96;101398.94;2026967;29;20044;-61
2022/02/13 04:09:53;;;;;;;10.17;3.10;;;;;;;-0.54;83.62;101402.38;2026831;29;20028;-60
2022/02/13 04:10:53;;;;;;;7.23;3.87;;;;;;;-0.56;83.64;101404.06;2026961;29;20474;-61
2022/02/13 04:11:53;;;;;;;4.60;3.10;;;;;;;-0.57;83.34;101397.22;2026924;29;20104;-60
2022/02/13 04:12:53;;;;;;;5.77;3.30;;;;;;;-0.56;83.69;101401.50;2026935;29;20043;-60
2022/02/13 04:13:54;;;;;;;9.43;3.83;;;;;;;-0.58;83.56;101400.63;2026386;29;20029;-61
2022/02/13 04:14:54;;;;;;;5.50;3.40;;;;;;;-0.61;83.85;101400.59;2026175;29;20080;-62
2022/02/13 04:15:54;;;;;;;5.50;3.10;;;;;;;-0.60;84.02;101394.63;2026838;29;20037;-60
2022/02/13 04:16:54;;;;;;;8.80;4.33;;;;;;;-0.57;83.85;101392.09;2026840;29;20481;-60
2022/02/13 04:17:55;;;;;;;7.90;3.00;;;;;;;-0.54;83.91;101392.13;2026857;29;20059;-62
2022/02/13 04:18:55;;;;;;;6.30;3.20;;;;;;;-0.57;83.65;101386.97;2026840;29;20474;-61
2022/02/13 04:19:55;;;;;;;6.23;3.30;;;;;;;-0.62;83.96;101383.47;2026871;29;20037;-61
2022/02/13 04:20:55;;;;;;;7.83;3.70;;;;;;;-0.61;84.32;101385.22;2026849;29;20466;-61
2022/02/13 04:21:56;;;;;;;6.07;3.87;;;;;;;-0.65;84.26;101378.31;2026772;29;20044;-60
2022/02/13 04:22:56;;;;;;;6.00;3.27;;;;;;;-0.65;84.65;101380.88;2026865;29;20088;-59
2022/02/13 04:23:56;;;;;;;6.27;3.73;;;;;;;-0.66;84.20;101379.16;2026845;29;20509;-60
2022/02/13 04:24:57;;;;;;;7.13;3.10;;;;;;;-0.69;84.42;101377.41;2026801;29;20120;-59
2022/02/13 04:26:01;;;;;;;6.23;3.03;;;;;;;-0.63;84.47;101375.75;2026868;29;20034;-62
2022/02/13 04:27:02;;;;;;;6.88;3.30;;;;;;;-0.61;84.37;101374.09;2026815;29;20303;-61
2022/02/13 04:28:03;;;;;;;6.93;3.30;;;;;;;-0.60;84.07;101376.69;2026069;29;20092;-61
2022/02/13 04:29:03;;;;;;;4.32;3.45;;;;;;;-0.62;84.16;101373.22;2026290;29;20482;-61
2022/02/13 04:30:05;;;;;;;5.87;3.33;;;;;;;-0.58;84.02;101369.84;2026773;29;20075;-61
2022/02/13 04:31:05;;;;;;;6.47;3.40;;;;;;;-0.56;84.10;101368.19;2026804;29;20025;-62
2022/02/13 04:32:06;;;;;;;5.67;3.60;;;;;;;-0.55;84.01;101364.75;2026137;29;20028;-59
2022/02/13 04:33:07;;;;;;;5.38;3.20;;;;;;;-0.54;83.81;101366.47;2026142;29;20051;-60
2022/02/13 04:34:08;;;;;;;4.57;3.37;;;;;;;-0.55;84.13;101369.88;2026689;29;20031;-60
2022/02/13 04:35:09;;;;;;;8.57;4.10;;;;;;;-0.54;83.99;101370.75;2026778;29;20297;-60
2022/02/13 04:36:09;;;;;;;5.13;3.63;;;;;;;-0.58;84.04;101364.72;2026603;29;20028;-58
2022/02/13 04:37:09;;;;;;;5.47;3.23;;;;;;;-0.49;83.79;101366.53;2026717;29;20311;-60
2022/02/13 04:38:09;;;;;;;8.27;3.40;;;;;;;-0.49;83.46;101365.66;2026624;29;20084;-60
2022/02/13 04:39:10;;;;;;;8.43;4.73;;;;;;;-0.48;83.76;101359.72;2026790;29;20024;-59
2022/02/13 04:40:11;;;;;;;6.10;3.77;;;;;;;-0.49;83.74;101361.41;2026694;29;20466;-61
2022/02/13 04:41:11;;;;;;;9.13;4.00;;;;;;;-0.52;83.84;101359.69;2026727;29;20032;-60